Time;durP1;ratioP1;P1;durP2;ratioP2;P2;SDS_P1;SDS_P2;PMS_P1;PMS_P2;Temp;Humidity;BMP_temperature;BMP_pressure;BME280_temperature;BME280_humidity;BME280_pressure;Samples;Min_cycle;Max_cycle;Signal;HPM_P1;HPM_P2
2022/12/18 00:07:42;;;;;;;42.40;17.52;;;-2.60;99.90;;;;;;20513705;28;20114;-41
2022/12/18 00:17:43;;;;;;;43.28;18.48;;;-2.60;99.90;;;;;;20512086;28;20065;-42
2022/12/18 00:27:44;;;;;;;34.63;16.45;;;-2.60;99.90;;;;;;20510924;28;20038;-42
2022/12/18 00:37:45;;;;;;;33.47;17.33;;;-2.70;99.90;;;;;;20504599;28;20142;-42
2022/12/18 00:47:46;;;;;;;37.90;16.10;;;-2.60;99.90;;;;;;20482936;28;20027;-42
2022/12/18 00:57:47;;;;;;;30.17;15.40;;;-2.60;99.90;;;;;;20491699;28;20146;-42
2022/12/18 01:07:48;;;;;;;35.40;17.08;;;-2.50;99.90;;;;;;20521662;28;20034;-41
2022/12/18 01:17:53;;;;;;;28.55;14.48;;;-2.80;99.90;;;;;;20520161;28;20502;-41
2022/12/18 01:27:54;;;;;;;35.35;17.15;;;-3.00;99.90;;;;;;20514727;28;20107;-41
2022/12/18 01:37:55;;;;;;;37.80;15.00;;;-3.00;99.90;;;;;;20514176;28;20146;-41
2022/12/18 01:48:01;;;;;;;34.05;15.80;;;-2.90;99.90;;;;;;20515304;28;20078;-41
2022/12/18 01:58:03;;;;;;;34.27;16.57;;;-3.00;99.90;;;;;;20522574;28;20067;-41
2022/12/18 02:08:16;;;;;;;40.05;16.27;;;-2.90;99.90;;;;;;20536544;28;20875;-41
2022/12/18 02:18:45;;;;;;;18.73;12.23;;;-2.90;99.90;;;;;;20532805;28;20206;-41
2022/12/18 02:29:16;;;;;;;34.53;16.45;;;-3.00;99.90;;;;;;20527589;28;20039;-42
2022/12/18 02:39:19;;;;;;;30.08;13.75;;;-3.20;99.90;;;;;;20490665;28;20844;-41
2022/12/18 02:49:44;;;;;;;35.85;15.27;;;-3.30;99.90;;;;;;20501780;28;20454;-42
2022/12/18 02:59:56;;;;;;;31.93;17.17;;;-3.00;99.90;;;;;;20496457;28;20128;-41
2022/12/18 03:10:00;;;;;;;30.73;14.55;;;-3.20;99.90;;;;;;20524222;28;21636;-41
2022/12/18 03:20:14;;;;;;;26.55;14.48;;;-3.20;99.90;;;;;;20513945;28;20063;-41
2022/12/18 03:41:23;;;;;;;26.58;14.65;;;-3.00;99.90;;;;;;20964360;23;20128;-39
2022/12/18 03:51:43;;;;;;;26.83;12.75;;;-3.00;99.90;;;;;;20654531;28;21091;-39
2022/12/18 04:01:50;;;;;;;20.40;12.43;;;-2.90;99.90;;;;;;20660141;28;20067;-39
2022/12/18 04:11:51;;;;;;;20.35;10.13;;;-3.10;99.90;;;;;;20650420;28;20054;-39
2022/12/18 04:21:52;;;;;;;23.15;11.90;;;-3.10;99.90;;;;;;20666690;28;20524;-39
2022/12/18 04:31:54;;;;;;;25.73;12.63;;;-3.00;99.90;;;;;;20664530;28;20055;-39
2022/12/18 04:41:55;;;;;;;17.33;8.93;;;-3.10;99.90;;;;;;20671580;28;20089;-39
2022/12/18 04:51:56;;;;;;;16.20;8.60;;;-3.20;99.90;;;;;;20658345;28;20446;-39
2022/12/18 05:01:57;;;;;;;25.42;12.68;;;-3.30;99.90;;;;;;20666319;28;20136;-39
2022/12/18 05:11:58;;;;;;;27.63;12.20;;;-3.20;99.90;;;;;;20647709;28;20050;-39
2022/12/18 05:21:59;;;;;;;21.50;10.18;;;-3.20;99.90;;;;;;20658714;28;20362;-39
2022/12/18 05:32:00;;;;;;;16.48;9.77;;;-3.30;99.90;;;;;;20670863;28;20121;-39
2022/12/18 05:42:01;;;;;;;21.35;9.32;;;-3.60;99.90;;;;;;20647537;28;20030;-39
2022/12/18 05:52:03;;;;;;;17.35;7.07;;;-3.40;99.90;;;;;;20694061;28;20556;-39
2022/12/18 06:02:04;;;;;;;15.75;7.10;;;-3.50;99.90;;;;;;20679563;28;20034;-39
2022/12/18 06:12:05;;;;;;;16.50;7.80;;;-3.60;99.90;;;;;;20677214;28;20433;-39
2022/12/18 06:22:06;;;;;;;17.40;5.85;;;-3.60;99.90;;;;;;20699496;28;20030;-39
2022/12/18 06:32:07;;;;;;;11.07;6.18;;;-3.70;99.90;;;;;;20729994;28;20044;-39
2022/12/18 06:42:08;;;;;;;11.50;6.47;;;-3.70;99.90;;;;;;20730347;28;20053;-39
2022/12/18 06:52:09;;;;;;;15.70;7.07;;;-3.60;99.90;;;;;;20729845;28;20084;-39
2022/12/18 07:02:12;;;;;;;15.80;5.72;;;-3.80;99.90;;;;;;20738095;28;20045;-39
2022/12/18 07:12:13;;;;;;;11.85;5.70;;;-3.90;99.90;;;;;;20730682;28;20062;-39
2022/12/18 07:22:14;;;;;;;8.95;4.68;;;-3.70;99.90;;;;;;20730897;28;20103;-39
2022/12/18 07:32:15;;;;;;;11.05;5.97;;;-3.70;99.90;;;;;;20737626;28;20049;-39
2022/12/18 07:42:31;;;;;;;16.67;6.03;;;-3.60;99.90;;;;;;20721600;28;20531;-39
2022/12/18 07:52:32;;;;;;;13.57;5.88;;;-3.50;99.90;;;;;;20724657;28;20038;-39
2022/12/18 08:02:33;;;;;;;14.52;6.82;;;-3.40;99.90;;;;;;20704928;28;20030;-39
2022/12/18 08:12:34;;;;;;;9.77;4.65;;;-3.40;99.90;;;;;;20707623;28;20041;-39
2022/12/18 08:22:37;;;;;;;14.32;5.63;;;-3.40;99.90;;;;;;20706206;28;20068;-39
2022/12/18 08:32:38;;;;;;;11.52;5.88;;;-3.30;99.90;;;;;;20661843;28;20096;-39
2022/12/18 08:52:58;;;;;;;15.50;6.97;;;-3.20;99.90;;;;;;20688021;28;20038;-38
2022/12/18 09:02:59;;;;;;;10.38;5.63;;;-3.10;99.90;;;;;;20636217;28;20403;-39
2022/12/18 09:13:00;;;;;;;10.98;6.03;;;-2.90;99.90;;;;;;20643371;28;20153;-39
2022/12/18 09:23:02;;;;;;;11.52;6.30;;;-2.80;99.90;;;;;;20634123;28;20069;-39
2022/12/18 09:33:03;;;;;;;10.80;6.43;;;-2.70;99.90;;;;;;20658067;28;21237;-40
2022/12/18 09:43:06;;;;;;;8.90;4.43;;;-2.60;99.90;;;;;;20656989;28;20132;-39
2022/12/18 09:53:15;;;;;;;11.68;6.63;;;-2.50;99.90;;;;;;20689497;28;20099;-39
2022/12/18 10:03:16;;;;;;;11.90;7.50;;;-2.50;99.90;;;;;;20653910;28;20077;-39
2022/12/18 10:13:41;;;;;;;10.88;5.95;;;-2.30;99.90;;;;;;20658738;28;20141;-39
2022/12/18 10:24:08;;;;;;;11.15;5.80;;;-2.10;99.90;;;;;;20659517;28;20176;-40
2022/12/18 10:34:13;;;;;;;10.50;6.22;;;-2.00;99.90;;;;;;20648445;28;20880;-39
2022/12/18 10:44:22;;;;;;;12.25;6.47;;;-1.90;99.90;;;;;;20649068;28;20125;-40
2022/12/18 10:54:25;;;;;;;8.48;5.00;;;-1.80;99.90;;;;;;20648722;28;20073;-39
2022/12/18 11:04:31;;;;;;;10.88;6.18;;;-1.70;99.90;;;;;;20644844;28;20748;-39
2022/12/18 11:14:42;;;;;;;12.15;5.07;;;-1.70;99.90;;;;;;20678726;28;20367;-39
2022/12/18 11:24:43;;;;;;;10.60;4.85;;;-1.50;99.90;;;;;;20673616;28;20519;-40
2022/12/18 11:34:50;;;;;;;8.55;5.93;;;-1.40;99.90;;;;;;20688037;28;20244;-39
2022/12/18 11:45:15;;;;;;;12.15;5.35;;;-1.30;99.90;;;;;;20661202;28;20105;-40
2022/12/18 11:55:38;;;;;;;7.85;5.07;;;-1.20;99.90;;;;;;20644493;28;21683;-39
2022/12/18 12:05:45;;;;;;;8.95;5.07;;;-1.10;99.90;;;;;;20590176;28;20341;-39
2022/12/18 12:16:38;;;;;;;9.00;5.07;;;-1.00;99.90;;;;;;20640829;28;20164;-39
2022/12/18 12:26:52;;;;;;;12.00;6.35;;;-0.90;99.90;;;;;;20641988;28;20936;-39
2022/12/18 12:37:02;;;;;;;10.25;5.35;;;-0.80;99.90;;;;;;20615125;28;20046;-39
2022/12/18 12:47:15;;;;;;;13.07;6.18;;;-0.70;99.90;;;;;;20646932;28;20095;-39
2022/12/18 12:57:23;;;;;;;13.70;5.88;;;-0.60;99.90;;;;;;20638453;28;20046;-37
2022/12/18 13:07:41;;;;;;;10.75;5.82;;;-0.60;99.90;;;;;;20601732;28;20104;-38
2022/12/18 13:17:42;;;;;;;9.52;5.38;;;-0.50;99.90;;;;;;20657167;28;20637;-38
2022/12/18 13:27:56;;;;;;;16.55;6.05;;;-0.40;99.70;;;;;;20648245;28;20454;-37
2022/12/18 13:37:57;;;;;;;11.55;6.22;;;-0.30;99.00;;;;;;20655098;28;20103;-37
2022/12/18 13:47:58;;;;;;;9.25;4.55;;;-0.30;99.80;;;;;;20650834;28;20247;-37
2022/12/18 13:58:06;;;;;;;13.43;7.55;;;-0.30;99.90;;;;;;20651188;28;20753;-37
2022/12/18 14:08:15;;;;;;;8.18;5.20;;;-0.20;99.80;;;;;;20649466;28;20231;-38
2022/12/18 14:18:38;;;;;;;15.20;7.15;;;-0.20;99.00;;;;;;20644225;28;20731;-37
2022/12/18 14:28:44;;;;;;;8.90;5.10;;;-0.10;98.60;;;;;;20655220;28;20141;-37
2022/12/18 14:38:51;;;;;;;11.30;6.17;;;-0.10;98.40;;;;;;20611611;28;20050;-38
2022/12/18 14:48:53;;;;;;;9.85;5.40;;;0.00;97.70;;;;;;20630943;28;20042;-37
2022/12/18 14:58:57;;;;;;;11.40;6.47;;;0.00;97.60;;;;;;20596593;28;20050;-38
2022/12/18 15:09:01;;;;;;;12.90;5.13;;;0.10;97.70;;;;;;20631201;28;20038;-37
2022/12/18 15:19:02;;;;;;;13.10;5.93;;;0.10;97.00;;;;;;20635017;28;22118;-37
2022/12/18 15:29:03;;;;;;;10.07;5.43;;;0.10;97.20;;;;;;20637815;28;20273;-38
2022/12/18 15:39:04;;;;;;;12.00;6.18;;;0.20;97.40;;;;;;20633439;28;20064;-37
2022/12/18 15:49:05;;;;;;;10.75;5.93;;;0.10;97.50;;;;;;20632711;28;20057;-38
2022/12/18 15:59:12;;;;;;;9.98;5.82;;;0.20;96.90;;;;;;20640840;28;20169;-38
2022/12/18 16:09:13;;;;;;;;;;;0.20;97.10;;;;;;20637400;28;20136;-38
2022/12/18 16:19:14;;;;;;;11.70;6.35;;;0.20;96.70;;;;;;20638941;28;19976;-37
2022/12/18 16:29:15;;;;;;;12.23;7.15;;;0.30;96.60;;;;;;20638484;28;20184;-38
2022/12/18 16:39:17;;;;;;;11.18;6.40;;;0.30;96.90;;;;;;20640747;28;20129;-38
2022/12/18 16:49:18;;;;;;;16.40;7.45;;;0.30;96.60;;;;;;20625947;28;20056;-37
2022/12/18 16:59:19;;;;;;;18.65;6.85;;;0.30;96.70;;;;;;20629522;28;20046;-38
2022/12/18 17:09:24;;;;;;;19.88;7.90;;;0.30;96.50;;;;;;20645665;28;20069;-38
2022/12/18 17:19:26;;;;;;;12.60;6.80;;;0.30;96.90;;;;;;20662880;28;20104;-38
2022/12/18 17:29:27;;;;;;;14.57;7.03;;;0.40;96.60;;;;;;20650957;28;20172;-38
2022/12/18 17:39:29;;;;;;;18.27;7.82;;;0.50;96.70;;;;;;20635378;28;20399;-38
2022/12/18 17:49:30;;;;;;;12.15;6.68;;;0.50;96.80;;;;;;20643590;28;20493;-38
2022/12/18 17:59:31;;;;;;;9.98;5.90;;;0.60;96.90;;;;;;20635142;28;20058;-38
2022/12/18 18:09:32;;;;;;;12.07;6.90;;;0.60;96.40;;;;;;20649490;28;20134;-38
2022/12/18 18:19:33;;;;;;;21.33;8.93;;;0.60;96.50;;;;;;20650468;28;21329;-40
2022/12/18 18:29:35;;;;;;;15.75;8.35;;;0.70;96.50;;;;;;20647875;28;20088;-38
2022/12/18 18:39:36;;;;;;;19.77;7.40;;;0.80;95.60;;;;;;20642376;28;20188;-38
2022/12/18 18:49:37;;;;;;;18.08;9.68;;;0.80;96.00;;;;;;20639795;28;20073;-39
2022/12/18 18:59:38;;;;;;;14.55;7.05;;;0.90;95.60;;;;;;20646822;28;20088;-38
2022/12/18 19:09:39;;;;;;;14.45;8.88;;;1.00;94.90;;;;;;20639691;28;20037;-38
2022/12/18 19:19:41;;;;;;;22.42;7.03;;;1.10;94.60;;;;;;20643159;28;20077;-38
2022/12/18 19:29:42;;;;;;;11.45;6.57;;;1.10;97.00;;;;;;20647097;28;20701;-38
2022/12/18 19:39:43;;;;;;;16.58;8.43;;;0.90;99.90;;;;;;20645890;28;20061;-38
2022/12/18 19:49:44;;;;;;;14.95;8.75;;;0.80;99.90;;;;;;20644479;28;20172;-38
2022/12/18 19:59:45;;;;;;;20.70;8.30;;;0.70;99.90;;;;;;20642717;28;20107;-38
2022/12/18 20:09:46;;;;;;;18.58;8.52;;;0.70;99.90;;;;;;20640983;28;20447;-38
2022/12/18 20:19:47;;;;;;;17.02;7.93;;;0.70;99.90;;;;;;20645617;28;20052;-38
2022/12/18 20:29:48;;;;;;;17.35;9.80;;;0.70;99.90;;;;;;20625235;28;20087;-37
2022/12/18 20:39:50;;;;;;;12.60;7.78;;;0.70;99.90;;;;;;20632340;28;20042;-38
2022/12/18 20:49:51;;;;;;;19.13;9.93;;;0.70;99.90;;;;;;20641704;28;20495;-37
2022/12/18 20:59:52;;;;;;;20.27;10.27;;;0.70;99.90;;;;;;20643436;28;20550;-38
2022/12/18 21:09:53;;;;;;;21.27;9.50;;;0.70;99.90;;;;;;20635425;28;20183;-37
2022/12/18 21:19:55;;;;;;;19.55;9.38;;;0.70;99.90;;;;;;20645390;28;20058;-38
2022/12/18 21:29:56;;;;;;;20.60;10.48;;;0.80;99.90;;;;;;20657917;28;20069;-37
2022/12/18 21:39:57;;;;;;;22.02;10.98;;;0.80;99.90;;;;;;20649697;28;20066;-37
2022/12/18 21:49:58;;;;;;;20.95;10.30;;;0.80;99.90;;;;;;20676915;28;20505;-38
2022/12/18 21:59:59;;;;;;;21.95;10.82;;;0.90;99.90;;;;;;20688437;28;20205;-37
2022/12/18 22:10:00;;;;;;;23.90;13.00;;;1.00;99.90;;;;;;20704576;28;20073;-37
2022/12/18 22:20:01;;;;;;;20.50;12.00;;;1.10;99.90;;;;;;20708049;28;20157;-37
2022/12/18 22:30:03;;;;;;;24.05;12.82;;;1.10;99.90;;;;;;20702518;28;20281;-38
2022/12/18 22:40:05;;;;;;;24.45;13.57;;;1.10;99.90;;;;;;20698800;28;22610;-37
2022/12/18 22:50:06;;;;;;;25.15;11.85;;;1.10;99.90;;;;;;20691443;28;20034;-38
2022/12/18 23:00:08;;;;;;;24.65;13.55;;;1.20;99.90;;;;;;20689141;28;20057;-38
2022/12/18 23:10:09;;;;;;;24.00;13.60;;;1.30;99.90;;;;;;20686873;28;20054;-37
2022/12/18 23:20:10;;;;;;;21.90;10.60;;;1.40;99.90;;;;;;20696902;28;20517;-38
2022/12/18 23:30:11;;;;;;;25.45;14.90;;;1.40;99.90;;;;;;20690463;28;20053;-37
2022/12/18 23:40:13;;;;;;;24.08;13.82;;;1.40;99.90;;;;;;20690928;28;20120;-37
2022/12/18 23:50:14;;;;;;;28.88;15.05;;;1.50;99.90;;;;;;20695166;28;20229;-37
